Terminal Aerodrome Forecast
Issued by NWS El Paso, TX

Home | Current Version | Previous Version | Text Only | Print | Product List | Glossary On
Versions: 1 2 3 4 5 6 7 8 9 10 11 12 13
000
FTUS44 KEPZ 301100
TAFELP
TAF
KELP 301123Z 3012/0112 27007KT P6SM SCT070
     FM301800 26013G20KT P6SM FEW070
     FM010200 27008KT P6SM SKC=

USA.gov is the U.S. government's official web portal to all federal, state and local government web resources and services.